Airfield :
LOGIN :

Register | Disclaimer

   EN    FR    IT 

 










Legend :    VFR   Marginal VFR   IFR   Intensive IFR   Very Intensive IFR
Visi :
Ceiling :
>= 8 km
>= 3000ft
5 to 8 km
1000 to 3000 ft
1500m to 5 km
500 to 1000 ft
800 to 1500m
200 to 500 ft
< 800m
< 200 ft
Symbols :   Thunderstorms  Fog  Heavy snow  Heavy precipitations  Wind > 20 kt
SIGMETs :     Misc.  Thunderstorms  Icing  Turbulence  Mountain Waves  Volcanic Ashes






- Airport Elevation : 218 ft
- IATA code : LBG


LFPB - Paris / Le Bourget

CURRENT METAR :
  • 232230Z AUTO 06005KT 5000 BR NSC 12/12 Q1007

EXPIRED METARs :
  • 232200Z AUTO 08003KT 030V120 6000 NSC 13/12 Q1007 TEMPO 2000 BR
  • 232130Z AUTO 07005KT 6000 NSC 13/13 Q1007 TEMPO 2000 BR BECMG 14010KT
  • 232100Z AUTO 08004KT 050V120 6000 NSC 13/12 Q1008 BECMG 4000 BR
  • 232030Z AUTO 09003KT 6000 NSC 13/13 Q1008 BECMG 4000 BR
  • 232000Z AUTO 08007KT 6000 NSC 14/13 Q1008 BECMG 14010KT 4000 BR

TAF TAF LFPB
Valid from the 23 at 18:00 until the 24 at 18:00 UTC


231700Z 2318/2418 14010KT 7000 NSC
BECMG 2320/2323 4000 BR
TEMPO 2323/2403 2000 BR
BECMG 2403/2406 8000 NSW
BECMG 2408/2411 20015KT
PROB40
TEMPO 2408/2411 BKN010
TEMPO 2411/2417 20015G30KT 3000 SHRA BKN012TCU
ATIS : +33 1 48 62 43 92



MET'MAP, your aeronautical weather chart ! - Copyright ORBIFLY December 2007 - Disclaimer

ORBIFLY MET'MAP TEAM :

Programming & Development : Alexandra Zaïnal
Concept & Development : Baudouin d'Aumeries
Co-Development & Prog : Marc-Olivier Méhu
Technical & hardware support : Manuel Goepfert

Contact : metmap@orbifly.com




SOURCES & CREDITS :

   NOAA